Celik 1 — 9HKY9 — position and weather

sailwx.info

Track history (hours):
 
Tides and Currents Weather Stations Pressure Air Temp Water Temp Dewpoint Dewpoint Depression Visibility Wind Speed Wind Dir Waves Ship Positions

Celik 1

Last reported at 2016-Sep-15 22:32 UTC. Time now 2016-Oct-01 22:21 UTC.
Position N 43°43' E 014°14'.
Warning: this ship's position is 15 days out of date.

Length 121 m; draft 5.3 m.

Type: Cargo ship. MMSI: 249114000.

Date/timePositionNaut miles runAvg speedWind from/ knotsBaromVisibWave heightAir tempDewpointWater temp
2016-Sep-15 22:32N 43°43' E 014°14'1110.9
2016-Sep-15 21:33N 43°47' E 013°60'1411.0
2016-Sep-15 20:15N 43°55' E 013°44'1810.9
2016-Sep-15 18:33N 44°06' E 013°23'28 4.5
2016-Sep-15 12:24N 44°23' E 012°53'27 3.4
2016-Sep-15 04:32N 44°28' E 012°15'0 0.0
2016-Sep-15 03:29N 44°28' E 012°15'0 0.0
2016-Sep-15 01:32N 44°28' E 012°15'0 0.0
2016-Sep-14 22:32N 44°28' E 012°15'0 0.0
2016-Sep-14 21:32N 44°28' E 012°15'0 0.0
2016-Sep-14 17:32N 44°28' E 012°15'0 0.0
2016-Sep-14 16:23N 44°28' E 012°15'0 0.0
2016-Sep-14 13:32N 44°28' E 012°15'0 0.0
2016-Sep-14 12:29N 44°28' E 012°15'0 0.0
2016-Sep-14 10:32N 44°28' E 012°15'0 0.0
2016-Sep-14 07:29N 44°28' E 012°15'0 0.0
2016-Sep-14 06:23N 44°28' E 012°15'0 0.0
2016-Sep-14 03:32N 44°28' E 012°15'0 0.0
2016-Sep-13 22:32N 44°28' E 012°15'0 0.0
2016-Sep-13 20:32N 44°28' E 012°15'0 0.0
2016-Sep-13 18:29N 44°28' E 012°15'0 0.0
2016-Sep-13 17:32N 44°28' E 012°15'0 0.0
2016-Sep-13 16:23N 44°28' E 012°15'0 0.0
2016-Sep-13 09:32N 44°28' E 012°15'0 0.0
2016-Sep-13 07:26N 44°28' E 012°15'0 0.0
2016-Sep-13 06:32N 44°28' E 012°15'0 0.0
2016-Sep-13 04:32N 44°28' E 012°15'0 0.0
2016-Sep-13 02:32N 44°28' E 012°15'0 0.0
2016-Sep-12 23:32N 44°28' E 012°15'0 0.0
2016-Sep-12 17:32N 44°28' E 012°15'0 0.0
2016-Sep-12 14:29N 44°28' E 012°15'0 0.0
2016-Sep-12 13:23N 44°28' E 012°15'0 0.0
2016-Sep-12 11:26N 44°28' E 012°15'0 0.0
2016-Sep-12 10:17N 44°28' E 012°15'0 0.0
2016-Sep-12 07:23N 44°28' E 012°15'0 0.0
2016-Sep-12 06:29N 44°28' E 012°15'9 3.1
2016-Sep-12 03:33N 44°30' E 012°27'0 0.0
2016-Sep-12 01:33N 44°30' E 012°27'0 0.0
2016-Sep-11 23:09N 44°30' E 012°27'0 0.0
2016-Sep-11 22:33N 44°30' E 012°27'0 0.0
2016-Sep-11 21:33N 44°30' E 012°27'0 0.0
2016-Sep-11 19:33N 44°30' E 012°27'0 0.0
2016-Sep-11 18:33N 44°30' E 012°27'0 0.0
2016-Sep-11 17:33N 44°30' E 012°27'0 0.0
2016-Sep-11 16:33N 44°30' E 012°27'0 0.0
2016-Sep-11 15:33N 44°30' E 012°27'0 0.0
2016-Sep-11 14:33N 44°30' E 012°27'0 0.0
2016-Sep-11 13:33N 44°30' E 012°27'0 0.1
2016-Sep-11 12:33N 44°30' E 012°27'8 7.6
2016-Sep-11 11:33N 44°27' E 012°37'4110.3
2016-Sep-11 07:33N 44°10' E 013°30'  
2016-Sep-08 04:25N 37°46' E 024°18'910.3
2016-Sep-08 03:31N 37°52' E 024°27'275 9.7
2016-Sep-06 23:10N 40°55' E 028°52'4 5.6
2016-Sep-06 22:32N 40°58' E 028°56'1 0.0
2016-Sep-06 07:26N 40°58' E 028°56'  
Track history (hours):
 
Tides and Currents Weather Stations Pressure Air Temp Water Temp Dewpoint Dewpoint Depression Visibility Wind Speed Wind Dir Waves Ship Positions

Celik 1

Last reported at 2016-Sep-15 22:32 UTC. Time now 2016-Oct-01 22:21 UTC.
Position N 43°43' E 014°14'.
Warning: this ship's position is 15 days out of date.

Length 121 m; draft 5.3 m.

Type: Cargo ship. MMSI: 249114000.

Date/timePositionNaut miles runAvg speedWind from/ knotsBaromVisibWave heightAir tempDewpointWater temp
2016-Sep-15 22:32N 43°43' E 014°14'1110.9
2016-Sep-15 21:33N 43°47' E 013°60'1411.0
2016-Sep-15 20:15N 43°55' E 013°44'1810.9
2016-Sep-15 18:33N 44°06' E 013°23'28 4.5
2016-Sep-15 12:24N 44°23' E 012°53'27 3.4
2016-Sep-15 04:32N 44°28' E 012°15'0 0.0
2016-Sep-15 03:29N 44°28' E 012°15'0 0.0
2016-Sep-15 01:32N 44°28' E 012°15'0 0.0
2016-Sep-14 22:32N 44°28' E 012°15'0 0.0
2016-Sep-14 21:32N 44°28' E 012°15'0 0.0
2016-Sep-14 17:32N 44°28' E 012°15'0 0.0
2016-Sep-14 16:23N 44°28' E 012°15'0 0.0
2016-Sep-14 13:32N 44°28' E 012°15'0 0.0
2016-Sep-14 12:29N 44°28' E 012°15'0 0.0
2016-Sep-14 10:32N 44°28' E 012°15'0 0.0
2016-Sep-14 07:29N 44°28' E 012°15'0 0.0
2016-Sep-14 06:23N 44°28' E 012°15'0 0.0
2016-Sep-14 03:32N 44°28' E 012°15'0 0.0
2016-Sep-13 22:32N 44°28' E 012°15'0 0.0
2016-Sep-13 20:32N 44°28' E 012°15'0 0.0
2016-Sep-13 18:29N 44°28' E 012°15'0 0.0
2016-Sep-13 17:32N 44°28' E 012°15'0 0.0
2016-Sep-13 16:23N 44°28' E 012°15'0 0.0
2016-Sep-13 09:32N 44°28' E 012°15'0 0.0
2016-Sep-13 07:26N 44°28' E 012°15'0 0.0
2016-Sep-13 06:32N 44°28' E 012°15'0 0.0
2016-Sep-13 04:32N 44°28' E 012°15'0 0.0
2016-Sep-13 02:32N 44°28' E 012°15'0 0.0
2016-Sep-12 23:32N 44°28' E 012°15'0 0.0
2016-Sep-12 17:32N 44°28' E 012°15'0 0.0
2016-Sep-12 14:29N 44°28' E 012°15'0 0.0
2016-Sep-12 13:23N 44°28' E 012°15'0 0.0
2016-Sep-12 11:26N 44°28' E 012°15'0 0.0
2016-Sep-12 10:17N 44°28' E 012°15'0 0.0
2016-Sep-12 07:23N 44°28' E 012°15'0 0.0
2016-Sep-12 06:29N 44°28' E 012°15'9 3.1
2016-Sep-12 03:33N 44°30' E 012°27'0 0.0
2016-Sep-12 01:33N 44°30' E 012°27'0 0.0
2016-Sep-11 23:09N 44°30' E 012°27'0 0.0
2016-Sep-11 22:33N 44°30' E 012°27'0 0.0
2016-Sep-11 21:33N 44°30' E 012°27'0 0.0
2016-Sep-11 19:33N 44°30' E 012°27'0 0.0
2016-Sep-11 18:33N 44°30' E 012°27'0 0.0
2016-Sep-11 17:33N 44°30' E 012°27'0 0.0
2016-Sep-11 16:33N 44°30' E 012°27'0 0.0
2016-Sep-11 15:33N 44°30' E 012°27'0 0.0
2016-Sep-11 14:33N 44°30' E 012°27'0 0.0
2016-Sep-11 13:33N 44°30' E 012°27'0 0.1
2016-Sep-11 12:33N 44°30' E 012°27'8 7.6
2016-Sep-11 11:33N 44°27' E 012°37'4110.3
2016-Sep-11 07:33N 44°10' E 013°30'  
2016-Sep-08 04:25N 37°46' E 024°18'910.3
2016-Sep-08 03:31N 37°52' E 024°27'275 9.7
2016-Sep-06 23:10N 40°55' E 028°52'4 5.6
2016-Sep-06 22:32N 40°58' E 028°56'1 0.0
2016-Sep-06 07:26N 40°58' E 028°56'  

Dump ship's entire track history